Date,TemperatureHighF,TemperatureAvgF,TemperatureLowF,DewpointHighF,DewpointAvgF,DewpointLowF,HumidityHigh,HumidityAvg,HumidityLow,PressureMaxIn,PressureMinIn,WindSpeedMaxMPH,WindSpeedAvgMPH,GustSpeedMaxMPH,PrecipitationSumIn
2013-11-1,68.5,63.5,58.1,64.0,59.8,54.0,96,88,77,29.83,29.52,13,4,28,0.09
2013-11-2,65.4,57.0,51.6,55.0,50.2,45.0,93,79,50,29.72,29.60,7,0,8,0.00
2013-11-3,51.5,43.4,33.1,47.0,35.1,19.0,88,73,54,30.41,29.73,3,0,8,0.00
2013-11-4,45.8,35.2,26.8,26.0,21.5,17.0,89,60,39,30.71,30.42,4,1,12,0.00
2013-11-5,49.2,37.4,25.2,35.0,29.8,23.0,94,76,50,30.71,30.53,9,1,9,0.00
2013-11-6,58.7,48.0,35.3,52.0,42.8,33.0,97,83,60,30.53,30.09,10,1,14,0.00
2013-11-7,64.2,54.2,37.0,60.0,52.3,34.0,98,93,84,30.07,29.69,7,1,11,0.30
2013-11-8,48.9,38.1,30.8,38.0,30.6,25.0,97,76,52,30.13,29.85,7,1,12,0.00
2013-11-9,45.9,36.7,26.2,33.0,27.5,24.0,92,72,45,30.24,30.06,4,0,8,0.00
2013-11-10,57.3,46.2,39.1,43.0,38.5,33.0,89,76,49,30.04,29.73,4,1,8,0.01
2013-11-11,51.0,44.9,35.9,40.0,31.8,28.0,79,61,43,30.13,29.92,6,2,15,0.00
2013-11-12,50.6,36.9,26.5,40.0,29.2,20.0,93,74,56,30.20,29.90,3,1,12,0.07
2013-11-13,36.9,28.9,24.0,20.0,16.9,14.0,78,62,42,30.30,30.20,4,1,11,0.00
2013-11-14,50.0,39.9,27.3,29.0,22.1,17.0,67,51,32,30.21,30.08,5,2,12,0.00
2013-11-15,58.7,45.5,35.3,40.0,30.0,19.0,93,59,26,30.23,30.14,7,2,11,0.00
2013-11-16,58.9,46.2,35.9,41.0,36.3,30.0,95,71,47,30.33,30.22,5,1,9,0.00
2013-11-17,59.2,48.8,35.5,59.0,47.1,34.0,99,94,78,30.31,29.86,5,1,9,0.16
2013-11-18,62.9,56.7,46.9,62.0,50.8,35.0,99,82,59,29.84,29.58,10,3,17,0.41
2013-11-19,46.6,40.1,31.1,34.0,26.0,20.0,71,58,43,30.29,29.69,6,2,12,0.00
2013-11-20,41.4,31.7,23.5,20.0,17.0,12.0,81,57,31,30.63,30.29,4,1,7,0.00
2013-11-21,46.8,34.3,21.5,33.0,23.8,18.0,89,69,35,30.64,30.40,4,1,7,0.00
2013-11-22,50.9,46.2,38.9,50.0,44.1,34.0,98,92,81,30.39,29.84,3,0,5,0.15
2013-11-23,47.9,41.2,29.8,47.0,29.1,17.0,97,64,37,29.92,29.82,8,2,15,0.00
2013-11-24,29.7,24.5,20.6,16.0,6.0,-1.0,59,46,32,30.23,29.84,13,3,21,0.00
2013-11-25,33.1,25.7,16.8,24.0,7.0,-4.0,70,47,23,30.40,30.23,6,1,12,0.00
2013-11-26,43.6,38.0,33.0,39.0,27.1,19.0,96,67,48,30.34,30.02,5,1,9,0.17
2013-11-27,62.0,51.6,36.1,61.0,50.6,34.0,99,96,88,30.01,29.24,24,5,33,1.12
2013-11-28,36.2,30.9,23.9,33.0,19.5,12.0,90,64,43,30.46,29.53,7,2,16,0.06
2013-11-29,35.6,28.7,21.9,20.0,16.4,9.0,70,60,49,30.74,30.46,6,1,8,0.00
2013-11-30,33.7,26.1,16.8,25.0,17.1,9.0,85,70,54,30.79,30.44,4,1,10,0.00